createdAt,value
2023-03-01T00:03:31.194Z,30.45
2023-03-01T00:08:34.252Z,31.15
2023-03-01T00:13:37.225Z,32.78
2023-03-01T00:18:39.622Z,30.40
2023-03-01T00:23:41.787Z,34.13
2023-03-01T00:28:44.418Z,31.55
2023-03-01T00:33:47.477Z,30.23
2023-03-01T00:38:49.588Z,32.10
2023-03-01T00:43:51.747Z,29.17
2023-03-01T00:48:54.506Z,31.85
2023-03-01T00:53:59.697Z,41.40
2023-03-01T00:59:02.344Z,37.67
2023-03-01T01:04:10.759Z,39.45
2023-03-01T01:09:18.557Z,40.28
2023-03-01T01:14:20.823Z,39.97
2023-03-01T01:19:24.706Z,42.67
2023-03-01T01:24:26.856Z,40.80
2023-03-01T01:29:29.129Z,35.45
2023-03-01T01:34:31.241Z,33.25
2023-03-01T01:39:33.422Z,32.47
2023-03-01T01:44:35.665Z,30.40
2023-03-01T01:49:45.808Z,31.88
2023-03-01T01:54:50.582Z,30.45
2023-03-01T01:59:56.280Z,28.88
2023-03-01T02:05:11.874Z,29.42
2023-03-01T02:10:14.061Z,29.42
2023-03-01T02:15:16.251Z,29.02
2023-03-01T02:20:24.558Z,31.35
2023-03-01T02:25:45.068Z,30.15
2023-03-01T02:31:09.248Z,33.28
2023-03-01T02:36:20.911Z,29.85
2023-03-01T02:41:24.662Z,26.40
2023-03-01T02:46:27.441Z,26.98
2023-03-01T02:51:38.260Z,28.67
2023-03-01T02:56:41.775Z,29.67
2023-03-01T03:01:45.453Z,28.77
2023-03-01T03:06:51.172Z,32.83
2023-03-01T03:11:53.568Z,32.13
2023-03-01T03:16:55.988Z,31.48
2023-03-01T03:21:58.101Z,28.75
2023-03-01T03:27:00.239Z,29.98
2023-03-01T03:32:02.416Z,28.25
2023-03-01T03:37:04.537Z,31.13
2023-03-01T03:42:06.594Z,28.67
2023-03-01T03:47:08.640Z,31.60
2023-03-01T03:52:14.432Z,31.98
2023-03-01T03:57:16.684Z,28.63
2023-03-01T04:02:23.182Z,28.23
2023-03-01T04:07:25.317Z,26.92
2023-03-01T04:12:27.505Z,27.20
2023-03-01T04:17:29.568Z,111.15
2023-03-01T04:22:33.086Z,28.52
2023-03-01T04:27:36.053Z,28.23
2023-03-01T04:32:38.382Z,26.05
2023-03-01T04:37:40.700Z,27.17
2023-03-01T04:42:43.554Z,40.95
2023-03-01T04:47:47.466Z,26.75
2023-03-01T04:52:49.689Z,28.83
2023-03-01T04:57:51.816Z,27.92
2023-03-01T05:03:00.868Z,25.48
2023-03-01T05:08:08.247Z,27.60
2023-03-01T05:13:10.587Z,26.13
2023-03-01T05:18:12.717Z,27.30
2023-03-01T05:23:17.572Z,28.52
2023-03-01T05:28:20.921Z,26.52
2023-03-01T05:33:23.401Z,29.33
2023-03-01T05:38:25.464Z,29.95
2023-03-01T05:43:31.659Z,31.95
2023-03-01T05:48:33.888Z,31.42
2023-03-01T05:53:36.524Z,36.05
2023-03-01T05:58:39.788Z,32.42
2023-03-01T06:03:42.266Z,33.78
2023-03-01T06:08:44.385Z,32.22
2023-03-01T06:13:47.056Z,30.58
2023-03-01T06:18:49.174Z,31.42
2023-03-01T06:23:51.270Z,30.77
2023-03-01T06:28:53.502Z,28.08
2023-03-01T06:33:55.544Z,31.48
2023-03-01T06:38:57.644Z,29.98
2023-03-01T06:44:00.110Z,29.15
2023-03-01T06:49:02.230Z,28.70
2023-03-01T06:54:07.302Z,27.42
2023-03-01T06:59:09.372Z,31.65
2023-03-01T07:04:12.319Z,25.00
2023-03-01T07:09:14.465Z,27.95
2023-03-01T07:14:17.067Z,29.83
2023-03-01T07:19:19.234Z,26.90
2023-03-01T07:24:21.465Z,27.45
2023-03-01T07:29:23.516Z,27.42
2023-03-01T07:34:27.770Z,31.20
2023-03-01T07:39:29.948Z,30.08
2023-03-01T07:44:32.080Z,31.23
2023-03-01T07:49:34.167Z,33.03
2023-03-01T07:54:36.283Z,31.73
2023-03-01T07:59:38.503Z,29.17
2023-03-01T08:04:40.717Z,32.33
2023-03-01T08:09:42.772Z,34.45
2023-03-01T08:14:44.838Z,30.67
2023-03-01T08:19:46.980Z,30.65
2023-03-01T08:24:49.189Z,27.95
2023-03-01T08:29:51.269Z,24.65
2023-03-01T08:34:53.356Z,22.73
2023-03-01T08:39:56.093Z,23.95
2023-03-01T08:44:58.260Z,23.88
2023-03-01T08:50:01.233Z,22.20
2023-03-01T08:55:03.373Z,23.20
2023-03-01T09:00:09.732Z,21.85
2023-03-01T09:05:11.808Z,22.90
2023-03-01T09:10:13.934Z,23.77
2023-03-01T09:15:16.266Z,20.67
2023-03-01T09:20:18.452Z,21.23
2023-03-01T09:25:20.535Z,19.08
2023-03-01T09:30:22.910Z,16.25
2023-03-01T09:35:25.410Z,17.13
2023-03-01T09:40:29.214Z,15.00
2023-03-01T09:45:35.045Z,21.67
2023-03-01T09:50:41.855Z,13.18
2023-03-01T09:55:51.827Z,14.88
2023-03-01T10:00:54.961Z,14.55
2023-03-01T10:06:23.901Z,13.10
2023-03-01T10:11:42.611Z,11.05
2023-03-01T10:16:59.926Z,10.25
2023-03-01T10:22:10.839Z,10.13
2023-03-01T10:27:23.193Z,7.15
2023-03-01T10:32:26.106Z,8.40
2023-03-01T10:37:28.529Z,8.43
2023-03-01T10:42:33.495Z,10.07
2023-03-01T10:47:35.579Z,9.45
2023-03-01T10:52:41.293Z,9.88
2023-03-01T10:57:43.367Z,10.98
2023-03-01T11:03:02.344Z,11.35
2023-03-01T11:08:07.031Z,11.32
2023-03-01T11:13:16.356Z,11.77
2023-03-01T11:18:31.058Z,11.10
2023-03-01T11:23:46.689Z,15.13
2023-03-01T11:28:54.898Z,11.32
2023-03-01T11:34:22.574Z,11.90
2023-03-01T11:40:00.991Z,12.70
2023-03-01T11:45:09.802Z,13.07
2023-03-01T11:50:15.035Z,13.10
2023-03-01T11:55:36.629Z,12.98
2023-03-01T12:01:02.724Z,46.50
2023-03-01T12:06:10.794Z,27.60
2023-03-01T12:11:41.317Z,25.83
2023-03-01T12:17:10.500Z,15.43
2023-03-01T12:22:38.839Z,14.75
2023-03-01T12:28:18.862Z,16.70
2023-03-01T12:33:35.011Z,14.63
2023-03-01T12:38:49.968Z,15.48
2023-03-01T12:44:32.809Z,17.00
2023-03-01T12:49:47.524Z,14.05
2023-03-01T12:54:52.727Z,15.55
2023-03-01T13:00:09.460Z,15.93
2023-03-01T13:05:25.517Z,14.88
2023-03-01T13:10:51.155Z,69.40
2023-03-01T13:15:54.246Z,47.45
2023-03-01T13:21:03.592Z,17.92
2023-03-01T13:26:16.623Z,16.08
2023-03-01T13:31:19.615Z,27.80
2023-03-01T13:36:31.947Z,32.72
2023-03-01T13:41:39.986Z,27.75
2023-03-01T13:46:46.298Z,20.58
2023-03-01T13:51:52.825Z,19.77
2023-03-01T13:56:56.214Z,16.65
2023-03-01T14:02:00.517Z,19.83
2023-03-01T14:07:21.823Z,18.65
2023-03-01T14:12:28.092Z,19.13
2023-03-01T14:17:59.908Z,16.05
2023-03-01T14:23:09.548Z,16.30
2023-03-01T14:28:17.816Z,17.75
2023-03-01T14:33:27.871Z,15.82
2023-03-01T14:38:31.942Z,18.60
2023-03-01T14:43:34.812Z,18.48
2023-03-01T14:48:37.215Z,20.38
2023-03-01T14:53:50.926Z,22.70
2023-03-01T14:58:58.646Z,22.17
2023-03-01T15:04:02.407Z,23.50
2023-03-01T15:09:04.993Z,35.17
2023-03-01T15:14:41.104Z,20.23
2023-03-01T15:19:43.238Z,21.17
2023-03-01T15:24:51.789Z,21.55
2023-03-01T15:30:00.265Z,25.63
2023-03-01T15:35:40.567Z,21.33
2023-03-01T15:40:51.018Z,23.08
2023-03-01T15:45:59.453Z,23.10
2023-03-01T15:51:02.621Z,28.60
2023-03-01T15:56:08.551Z,22.70
2023-03-01T16:01:15.966Z,20.67
2023-03-01T16:06:18.024Z,22.20
2023-03-01T16:11:21.385Z,24.27
2023-03-01T16:16:23.732Z,22.77
2023-03-01T16:21:26.494Z,24.13
2023-03-01T16:26:29.052Z,22.70
2023-03-01T16:31:32.222Z,25.95
2023-03-01T16:36:34.777Z,24.23
2023-03-01T16:41:36.952Z,25.23
2023-03-01T16:46:39.086Z,23.67
2023-03-01T16:51:41.176Z,26.92
2023-03-01T16:56:45.598Z,23.98
2023-03-01T17:01:48.504Z,25.17
2023-03-01T17:06:50.903Z,26.55
2023-03-01T17:11:53.060Z,24.30
2023-03-01T17:16:55.524Z,24.48
2023-03-01T17:21:57.709Z,24.95
2023-03-01T17:26:59.989Z,25.80
2023-03-01T17:32:02.788Z,23.55
2023-03-01T17:37:05.050Z,25.05
2023-03-01T17:42:07.336Z,24.80
2023-03-01T17:47:12.593Z,25.88
2023-03-01T17:52:14.714Z,25.60
2023-03-01T17:57:17.504Z,24.85
2023-03-01T18:02:20.587Z,25.02
2023-03-01T18:07:22.771Z,24.70
2023-03-01T18:12:24.897Z,24.95
2023-03-01T18:17:27.113Z,26.98
2023-03-01T18:22:29.425Z,31.52
2023-03-01T18:27:31.939Z,30.50
2023-03-01T18:32:34.220Z,28.65
2023-03-01T18:37:36.412Z,32.38
2023-03-01T18:42:38.560Z,33.50
2023-03-01T18:47:41.321Z,33.03
2023-03-01T18:52:43.590Z,32.15
2023-03-01T18:57:45.772Z,31.85
2023-03-01T19:02:48.023Z,32.10
2023-03-01T19:07:50.341Z,31.15
2023-03-01T19:12:52.523Z,29.27
2023-03-01T19:17:59.054Z,28.10
2023-03-01T19:23:01.156Z,26.98
2023-03-01T19:28:03.665Z,24.80
2023-03-01T19:33:06.153Z,27.52
2023-03-01T19:38:08.590Z,21.15
2023-03-01T19:43:13.916Z,20.58
2023-03-01T19:48:16.000Z,22.00
2023-03-01T19:53:18.206Z,24.00
2023-03-01T19:58:20.400Z,23.90
2023-03-01T20:03:22.536Z,25.58
2023-03-01T20:08:25.774Z,27.17
2023-03-01T20:13:27.914Z,34.75
2023-03-01T20:18:30.929Z,35.85
2023-03-01T20:23:33.241Z,39.88
2023-03-01T20:28:36.942Z,43.05
2023-03-01T20:33:39.328Z,50.45
2023-03-01T20:38:41.510Z,53.35
2023-03-01T20:43:44.005Z,55.90
2023-03-01T20:48:46.178Z,56.88
2023-03-01T20:53:48.499Z,55.78
2023-03-01T20:58:51.229Z,58.38
2023-03-01T21:03:53.454Z,57.90
2023-03-01T21:08:56.847Z,60.10
2023-03-01T21:13:59.260Z,60.65
2023-03-01T21:19:10.821Z,62.72
2023-03-01T21:24:13.047Z,64.70
2023-03-01T21:29:15.318Z,67.93
2023-03-01T21:34:17.457Z,73.43
2023-03-01T21:39:19.713Z,67.10
2023-03-01T21:44:22.443Z,68.82
2023-03-01T21:49:25.567Z,63.05
2023-03-01T21:54:28.081Z,66.05
2023-03-01T21:59:30.265Z,59.92
2023-03-01T22:04:32.496Z,58.30
2023-03-01T22:09:36.322Z,59.42
2023-03-01T22:14:38.570Z,62.30
2023-03-01T22:19:40.675Z,55.85
2023-03-01T22:24:43.040Z,59.92
2023-03-01T22:29:45.384Z,55.25
2023-03-01T22:34:47.858Z,55.05
2023-03-01T22:39:50.145Z,54.00
2023-03-01T22:44:52.364Z,50.15
2023-03-01T22:49:57.638Z,51.80
2023-03-01T22:55:00.142Z,49.33
2023-03-01T23:00:04.663Z,54.08
2023-03-01T23:05:07.775Z,54.03
2023-03-01T23:10:12.337Z,48.13
2023-03-01T23:15:14.623Z,50.72
2023-03-01T23:20:17.149Z,50.05
2023-03-01T23:25:19.297Z,51.85
2023-03-01T23:30:21.805Z,48.55
2023-03-01T23:35:23.913Z,48.80
2023-03-01T23:40:26.112Z,48.65
2023-03-01T23:45:28.186Z,44.30
2023-03-01T23:50:30.234Z,42.45
2023-03-01T23:55:32.785Z,40.97
